createdAt,value
2019-05-18T00:05:46.114Z,25.43
2019-05-18T00:08:19.714Z,39.80
2019-05-18T00:10:53.318Z,40.73
2019-05-18T00:13:26.990Z,34.50
2019-05-18T00:16:00.655Z,23.63
2019-05-18T00:22:20.346Z,26.83
2019-05-18T00:24:53.990Z,37.33
2019-05-18T00:27:27.600Z,31.67
2019-05-18T00:30:01.338Z,41.07
2019-05-18T00:32:34.993Z,31.70
2019-05-18T00:35:09.334Z,37.77
2019-05-18T00:37:42.937Z,28.03
2019-05-18T00:40:16.644Z,27.13
2019-05-18T00:42:50.242Z,28.33
2019-05-18T00:45:23.903Z,27.80
2019-05-18T00:47:59.472Z,28.00
2019-05-18T00:50:32.892Z,27.37
2019-05-18T00:53:06.542Z,21.77
2019-05-18T00:55:40.272Z,29.27
2019-05-18T00:58:14.006Z,22.07
2019-05-18T01:00:47.664Z,26.33
2019-05-18T01:03:21.268Z,23.10
2019-05-18T01:05:54.890Z,30.47
2019-05-18T01:08:28.611Z,21.30
2019-05-18T01:11:02.237Z,23.67
2019-05-18T01:13:35.798Z,23.37
2019-05-18T01:16:09.392Z,28.73
2019-05-18T01:18:43.274Z,26.27
2019-05-18T01:21:16.867Z,23.90
2019-05-18T01:23:50.594Z,28.23
2019-05-18T01:26:24.262Z,27.33
2019-05-18T01:29:04.099Z,29.27
2019-05-18T01:31:37.860Z,28.33
2019-05-18T01:34:11.563Z,23.30
2019-05-18T01:36:45.292Z,24.97
2019-05-18T01:39:18.952Z,26.13
2019-05-18T01:41:52.538Z,29.30
2019-05-18T01:44:26.184Z,26.87
2019-05-18T01:46:59.843Z,30.33
2019-05-18T01:49:33.538Z,23.30
2019-05-18T01:52:07.251Z,25.97
2019-05-18T01:54:41.110Z,25.13
2019-05-18T01:57:14.734Z,25.37
2019-05-18T01:59:48.378Z,22.30
2019-05-18T02:06:08.459Z,24.97
2019-05-18T02:08:42.097Z,23.23
2019-05-18T02:11:15.815Z,27.00
2019-05-18T02:13:49.444Z,23.97
2019-05-18T02:16:23.062Z,22.20
2019-05-18T02:22:33.623Z,25.80
2019-05-18T02:25:07.663Z,26.80
2019-05-18T02:27:41.302Z,22.07
2019-05-18T02:30:17.555Z,24.63
2019-05-18T02:32:50.305Z,24.67
2019-05-18T02:35:23.949Z,22.40
2019-05-18T02:37:59.173Z,20.60
2019-05-18T02:40:32.770Z,20.30
2019-05-18T02:43:06.403Z,22.60
2019-05-18T02:45:40.136Z,22.93
2019-05-18T02:48:13.843Z,22.27
2019-05-18T02:50:47.505Z,25.47
2019-05-18T02:53:21.283Z,23.57
2019-05-18T02:55:54.868Z,26.33
2019-05-18T02:58:28.533Z,26.07
2019-05-18T03:01:02.170Z,26.93
2019-05-18T03:03:35.877Z,31.30
2019-05-18T03:06:09.689Z,30.03
2019-05-18T03:08:43.454Z,27.33
2019-05-18T03:11:17.077Z,28.00
2019-05-18T03:13:50.789Z,28.90
2019-05-18T03:16:24.421Z,27.83
2019-05-18T03:19:08.428Z,22.20
2019-05-18T03:21:34.481Z,23.10
2019-05-18T03:24:08.206Z,21.50
2019-05-18T03:26:41.860Z,19.47
2019-05-18T03:29:15.581Z,20.73
2019-05-18T03:31:55.402Z,19.10
2019-05-18T03:34:29.010Z,20.90
2019-05-18T03:37:02.794Z,18.70
2019-05-18T03:39:36.513Z,18.63
2019-05-18T03:42:10.145Z,19.73
2019-05-18T03:44:43.837Z,22.13
2019-05-18T03:47:17.492Z,20.60
2019-05-18T03:49:51.429Z,20.43
2019-05-18T03:52:25.167Z,23.97
2019-05-18T03:54:58.820Z,20.80
2019-05-18T03:57:32.472Z,16.77
2019-05-18T04:00:08.311Z,17.20
2019-05-18T04:06:19.226Z,15.47
2019-05-18T04:08:52.928Z,17.47
2019-05-18T04:11:26.641Z,18.50
2019-05-18T04:14:00.263Z,18.13
2019-05-18T04:16:37.639Z,17.70
2019-05-18T04:22:57.325Z,18.10
2019-05-18T04:25:30.949Z,21.77
2019-05-18T04:28:04.645Z,19.90
2019-05-18T04:30:38.326Z,18.50
2019-05-18T04:33:11.954Z,18.20
2019-05-18T04:35:45.628Z,18.67
2019-05-18T04:38:19.333Z,17.20
2019-05-18T04:40:52.926Z,17.00
2019-05-18T04:43:26.640Z,17.73
2019-05-18T04:46:00.312Z,15.33
2019-05-18T04:48:33.911Z,12.43
2019-05-18T04:51:07.529Z,13.13
2019-05-18T04:53:41.174Z,12.60
2019-05-18T04:56:14.771Z,11.37
2019-05-18T04:58:48.510Z,14.13
2019-05-18T05:01:22.273Z,16.07
2019-05-18T05:03:55.906Z,16.10
2019-05-18T05:06:29.520Z,16.03
2019-05-18T05:09:04.822Z,18.03
2019-05-18T05:11:38.419Z,18.47
2019-05-18T05:14:12.117Z,18.33
2019-05-18T05:16:45.745Z,18.23
2019-05-18T05:19:19.357Z,19.77
2019-05-18T05:21:52.963Z,17.63
2019-05-18T05:24:26.573Z,18.63
2019-05-18T05:27:00.192Z,19.40
2019-05-18T05:29:33.761Z,20.53
2019-05-18T05:32:07.403Z,20.43
2019-05-18T05:34:41.001Z,21.27
2019-05-18T05:37:14.717Z,17.60
2019-05-18T05:39:48.320Z,26.00
2019-05-18T05:42:21.997Z,20.30
2019-05-18T05:44:55.632Z,23.10
2019-05-18T05:47:29.252Z,22.17
2019-05-18T05:50:02.965Z,23.30
2019-05-18T05:52:36.632Z,21.77
2019-05-18T05:55:11.038Z,27.77
2019-05-18T05:57:44.622Z,26.90
2019-05-18T06:00:18.834Z,24.63
2019-05-18T06:02:52.473Z,28.10
2019-05-18T06:05:26.242Z,26.47
2019-05-18T06:07:59.901Z,25.13
2019-05-18T06:10:33.524Z,23.93
2019-05-18T06:13:07.658Z,24.27
2019-05-18T06:15:41.289Z,22.93
2019-05-18T06:22:01.211Z,22.60
2019-05-18T06:24:34.910Z,22.20
2019-05-18T06:27:08.497Z,22.00
2019-05-18T06:29:42.130Z,21.03
2019-05-18T06:32:15.809Z,20.60
2019-05-18T06:38:26.963Z,19.87
2019-05-18T06:41:00.528Z,18.60
2019-05-18T06:43:34.154Z,18.82
2019-05-18T06:46:07.744Z,17.70
2019-05-18T06:48:41.411Z,17.10
2019-05-18T06:51:15.046Z,16.25
2019-05-18T06:53:49.036Z,16.37
2019-05-18T06:56:23.124Z,16.82
2019-05-18T06:58:58.161Z,16.77
2019-05-18T07:01:31.802Z,18.17
2019-05-18T07:04:05.528Z,16.97
2019-05-18T07:06:39.426Z,18.35
2019-05-18T07:09:14.467Z,17.45
2019-05-18T07:11:48.322Z,18.17
2019-05-18T07:14:25.826Z,17.10
2019-05-18T07:16:57.254Z,18.73
2019-05-18T07:19:30.951Z,18.92
2019-05-18T07:22:05.651Z,18.23
2019-05-18T07:24:39.289Z,19.87
2019-05-18T07:27:12.896Z,19.95
2019-05-18T07:29:46.580Z,20.23
2019-05-18T07:32:20.205Z,19.98
2019-05-18T07:34:53.836Z,18.80
2019-05-18T07:37:27.567Z,18.53
2019-05-18T07:40:01.200Z,18.90
2019-05-18T07:42:34.807Z,20.00
2019-05-18T07:45:09.209Z,18.53
2019-05-18T07:47:42.956Z,21.23
2019-05-18T07:50:16.809Z,21.30
2019-05-18T07:52:50.522Z,21.60
2019-05-18T07:55:24.204Z,21.10
2019-05-18T07:57:57.909Z,22.27
2019-05-18T08:00:31.673Z,24.07
2019-05-18T08:03:05.429Z,23.53
2019-05-18T08:05:39.022Z,24.87
2019-05-18T08:08:12.661Z,22.63
2019-05-18T08:10:46.272Z,22.70
2019-05-18T08:13:19.907Z,22.63
2019-05-18T08:15:53.584Z,21.60
2019-05-18T08:22:04.696Z,20.10
2019-05-18T08:24:38.388Z,17.63
2019-05-18T08:27:12.064Z,18.40
2019-05-18T08:29:45.998Z,18.50
2019-05-18T08:32:19.584Z,18.37
2019-05-18T08:38:30.140Z,19.43
2019-05-18T08:41:03.747Z,20.23
2019-05-18T08:43:37.472Z,20.43
2019-05-18T08:46:11.062Z,20.13
2019-05-18T08:48:44.692Z,20.93
2019-05-18T08:51:18.355Z,21.37
2019-05-18T08:53:52.027Z,21.27
2019-05-18T08:56:25.662Z,21.87
2019-05-18T08:58:59.389Z,22.30
2019-05-18T09:01:33.063Z,21.77
2019-05-18T09:04:06.775Z,22.77
2019-05-18T09:06:40.383Z,22.63
2019-05-18T09:09:14.023Z,22.77
2019-05-18T09:11:47.629Z,23.27
2019-05-18T09:14:21.337Z,23.17
2019-05-18T09:16:54.926Z,22.20
2019-05-18T09:19:28.578Z,22.03
2019-05-18T09:22:02.242Z,21.63
2019-05-18T09:24:36.004Z,21.60
2019-05-18T09:27:09.684Z,22.60
2019-05-18T09:29:43.352Z,22.73
2019-05-18T09:32:17.038Z,21.97
2019-05-18T09:34:50.728Z,22.63
2019-05-18T09:37:24.316Z,20.80
2019-05-18T09:39:58.046Z,20.83
2019-05-18T09:42:31.709Z,21.20
2019-05-18T09:45:07.099Z,20.47
2019-05-18T09:47:41.146Z,22.73
2019-05-18T09:50:15.197Z,22.27
2019-05-18T09:52:48.792Z,20.33
2019-05-18T09:55:22.634Z,22.70
2019-05-18T09:57:56.272Z,21.53
2019-05-18T10:00:38.004Z,18.07
2019-05-18T10:03:05.371Z,21.37
2019-05-18T10:05:39.022Z,19.80
2019-05-18T10:08:12.616Z,19.27
2019-05-18T10:10:46.609Z,18.47
2019-05-18T10:13:20.286Z,16.00
2019-05-18T10:15:53.884Z,17.60
2019-05-18T10:18:27.467Z,18.97
2019-05-18T10:21:01.217Z,17.80
2019-05-18T10:23:34.820Z,14.97
2019-05-18T10:26:08.464Z,15.30
2019-05-18T10:29:01.393Z,14.37
2019-05-18T10:31:35.414Z,13.60
2019-05-18T10:34:09.051Z,13.10
2019-05-18T10:36:43.811Z,13.03
2019-05-18T10:39:17.699Z,11.87
2019-05-18T10:41:51.500Z,10.87
2019-05-18T10:44:25.245Z,9.53
2019-05-18T10:46:58.844Z,8.47
2019-05-18T10:49:32.500Z,8.87
2019-05-18T10:52:06.220Z,9.13
2019-05-18T10:54:39.926Z,8.30
2019-05-18T10:57:13.572Z,5.80
2019-05-18T10:59:47.334Z,5.47
2019-05-18T11:02:20.980Z,4.03
2019-05-18T11:04:54.640Z,4.30
2019-05-18T11:07:29.077Z,4.23
2019-05-18T11:10:03.080Z,4.17
2019-05-18T11:12:36.756Z,3.90
2019-05-18T11:15:12.439Z,4.53
2019-05-18T11:17:46.106Z,2.70
2019-05-18T11:20:20.178Z,4.00
2019-05-18T11:22:53.830Z,3.93
2019-05-18T11:25:34.703Z,3.20
2019-05-18T11:28:08.442Z,2.93
2019-05-18T11:30:42.073Z,1.87
2019-05-18T11:33:15.740Z,1.63
2019-05-18T11:35:49.344Z,1.50
2019-05-18T11:38:23.364Z,1.50
2019-05-18T11:40:56.966Z,1.20
2019-05-18T11:43:31.548Z,0.87
2019-05-18T11:46:05.325Z,1.40
2019-05-18T11:48:38.972Z,1.40
2019-05-18T11:51:12.683Z,1.10
2019-05-18T11:53:57.501Z,1.30
2019-05-18T11:56:21.635Z,1.43
2019-05-18T11:58:55.224Z,1.43
2019-05-18T12:01:28.842Z,1.70
2019-05-18T12:04:02.502Z,1.90
2019-05-18T12:06:36.113Z,1.70
2019-05-18T12:09:09.706Z,1.67
2019-05-18T12:11:43.296Z,1.70
2019-05-18T12:14:17.072Z,2.27
2019-05-18T12:16:50.760Z,2.07
2019-05-18T12:19:24.349Z,2.30
2019-05-18T12:21:57.999Z,2.60
2019-05-18T12:24:31.603Z,2.30
2019-05-18T12:27:05.367Z,2.50
2019-05-18T12:29:39.119Z,1.93
2019-05-18T12:32:12.749Z,2.37
2019-05-18T12:34:46.346Z,2.17
2019-05-18T12:37:23.384Z,2.00
2019-05-18T12:39:57.043Z,2.00
2019-05-18T12:42:30.670Z,3.10
2019-05-18T12:45:05.055Z,3.30
2019-05-18T12:47:38.694Z,3.57
2019-05-18T12:50:12.865Z,3.67
2019-05-18T12:52:46.681Z,3.40
2019-05-18T12:55:20.900Z,3.57
2019-05-18T12:57:54.727Z,3.97
2019-05-18T13:00:28.916Z,4.50
2019-05-18T13:03:03.537Z,6.23
2019-05-18T13:05:37.197Z,7.33
2019-05-18T13:08:10.825Z,8.97
2019-05-18T13:10:44.574Z,10.77
2019-05-18T13:13:18.159Z,9.50
2019-05-18T13:15:51.808Z,8.17
2019-05-18T13:18:25.567Z,7.90
2019-05-18T13:20:59.283Z,8.77
2019-05-18T13:23:32.995Z,10.30
2019-05-18T13:26:06.768Z,12.03
2019-05-18T13:28:40.400Z,9.97
2019-05-18T13:31:14.111Z,12.00
2019-05-18T13:33:47.845Z,12.00
2019-05-18T13:36:21.443Z,11.73
2019-05-18T13:38:55.052Z,11.67
2019-05-18T13:41:28.856Z,10.30
2019-05-18T13:44:02.465Z,11.70
2019-05-18T13:46:36.090Z,11.40
2019-05-18T13:49:09.710Z,12.17
2019-05-18T13:51:43.490Z,12.83
2019-05-18T13:54:17.161Z,13.33
2019-05-18T13:56:50.751Z,14.70
2019-05-18T13:59:24.566Z,17.30
2019-05-18T14:01:58.836Z,18.27
2019-05-18T14:04:32.574Z,17.73
2019-05-18T14:07:06.393Z,19.17
2019-05-18T14:09:40.071Z,19.83
2019-05-18T14:12:13.863Z,19.80
2019-05-18T14:14:48.056Z,20.87
2019-05-18T14:17:21.720Z,20.20
2019-05-18T14:19:55.567Z,20.17
2019-05-18T14:22:29.173Z,21.43
2019-05-18T14:25:10.572Z,21.57
2019-05-18T14:27:38.132Z,21.40
2019-05-18T14:30:12.472Z,19.80
2019-05-18T14:32:46.254Z,19.13
2019-05-18T14:35:20.027Z,18.77
2019-05-18T14:37:54.025Z,18.13
2019-05-18T14:40:27.754Z,18.03
2019-05-18T14:43:01.391Z,16.37
2019-05-18T14:45:35.061Z,13.93
2019-05-18T14:48:10.482Z,16.27
2019-05-18T14:50:44.716Z,15.00
2019-05-18T14:53:18.370Z,15.73
2019-05-18T14:55:52.171Z,13.80
2019-05-18T14:58:25.893Z,12.80
2019-05-18T15:00:59.498Z,10.83
2019-05-18T15:03:33.128Z,10.20
2019-05-18T15:06:06.879Z,10.20
2019-05-18T15:08:40.480Z,9.90
2019-05-18T15:11:14.097Z,9.33
2019-05-18T15:13:47.708Z,8.83
2019-05-18T15:16:21.413Z,6.33
2019-05-18T15:18:57.695Z,9.07
2019-05-18T15:21:31.420Z,9.00
2019-05-18T15:24:08.538Z,8.97
2019-05-18T15:26:40.305Z,9.00
2019-05-18T15:29:14.040Z,9.20
2019-05-18T15:31:47.716Z,9.47
2019-05-18T15:34:21.355Z,9.53
2019-05-18T15:36:55.083Z,8.87
2019-05-18T15:39:28.759Z,8.70
2019-05-18T15:42:02.448Z,9.77
2019-05-18T15:44:36.187Z,8.63
2019-05-18T15:47:09.892Z,8.30
2019-05-18T15:49:43.501Z,8.40
2019-05-18T15:52:17.199Z,9.50
2019-05-18T15:54:50.871Z,9.87
2019-05-18T15:57:24.563Z,11.03
2019-05-18T15:59:58.163Z,10.87
2019-05-18T16:02:31.753Z,11.33
2019-05-18T16:05:05.874Z,11.60
2019-05-18T16:07:39.705Z,11.23
2019-05-18T16:10:14.317Z,11.40
2019-05-18T16:12:48.223Z,12.63
2019-05-18T16:15:22.081Z,13.10
2019-05-18T16:17:55.807Z,11.50
2019-05-18T16:20:29.542Z,11.37
2019-05-18T16:23:03.538Z,11.67
2019-05-18T16:25:37.227Z,11.23
2019-05-18T16:28:10.887Z,10.67
2019-05-18T16:30:44.559Z,11.03
2019-05-18T16:33:18.321Z,11.47
2019-05-18T16:35:51.989Z,12.07
2019-05-18T16:38:25.674Z,11.47
2019-05-18T16:40:59.360Z,11.90
2019-05-18T16:43:33.737Z,11.30
2019-05-18T16:46:07.415Z,12.33
2019-05-18T16:48:41.060Z,12.47
2019-05-18T16:51:14.689Z,11.83
2019-05-18T16:53:50.309Z,11.63
2019-05-18T16:56:34.622Z,12.13
2019-05-18T16:58:59.036Z,12.40
2019-05-18T17:01:32.750Z,12.43
2019-05-18T17:04:06.393Z,12.83
2019-05-18T17:06:40.043Z,12.57
2019-05-18T17:09:13.638Z,12.90
2019-05-18T17:11:48.096Z,12.30
2019-05-18T17:14:22.026Z,12.47
2019-05-18T17:16:55.639Z,12.47
2019-05-18T17:19:29.710Z,11.70
2019-05-18T17:22:03.483Z,13.10
2019-05-18T17:24:37.079Z,14.00
2019-05-18T17:27:10.993Z,13.17
2019-05-18T17:29:44.657Z,13.83
2019-05-18T17:32:18.436Z,13.73
2019-05-18T17:34:52.041Z,14.97
2019-05-18T17:37:25.642Z,13.93
2019-05-18T17:39:59.296Z,13.23
2019-05-18T17:42:32.951Z,13.13
2019-05-18T17:45:07.801Z,13.70
2019-05-18T17:47:41.900Z,13.40
2019-05-18T17:50:15.728Z,13.23
2019-05-18T17:52:49.462Z,15.60
2019-05-18T17:55:23.226Z,15.93
2019-05-18T17:57:56.964Z,17.80
2019-05-18T18:00:30.693Z,18.73
2019-05-18T18:03:04.420Z,19.57
2019-05-18T18:05:38.010Z,20.33
2019-05-18T18:08:11.712Z,18.70
2019-05-18T18:10:45.300Z,21.40
2019-05-18T18:13:18.951Z,20.10
2019-05-18T18:15:52.555Z,21.50
2019-05-18T18:18:26.226Z,20.97
2019-05-18T18:20:59.864Z,21.20
2019-05-18T18:23:33.486Z,21.77
2019-05-18T18:26:07.137Z,21.97
2019-05-18T18:28:40.849Z,21.70
2019-05-18T18:31:14.447Z,20.30
2019-05-18T18:33:48.236Z,22.27
2019-05-18T18:36:21.838Z,23.00
2019-05-18T18:38:55.481Z,23.00
2019-05-18T18:41:29.238Z,23.53
2019-05-18T18:44:03.968Z,22.80
2019-05-18T18:46:38.033Z,23.43
2019-05-18T18:49:12.035Z,24.77
2019-05-18T18:51:45.640Z,25.20
2019-05-18T18:54:19.351Z,26.10
2019-05-18T18:56:52.968Z,25.63
2019-05-18T18:59:26.586Z,25.37
2019-05-18T19:02:00.319Z,27.97
2019-05-18T19:04:34.098Z,28.87
2019-05-18T19:07:09.227Z,28.90
2019-05-18T19:09:43.010Z,28.50
2019-05-18T19:12:16.608Z,31.20
2019-05-18T19:14:50.256Z,30.07
2019-05-18T19:17:23.852Z,30.77
2019-05-18T19:19:57.561Z,29.53
2019-05-18T19:22:31.166Z,31.93
2019-05-18T19:25:05.523Z,34.20
2019-05-18T19:27:39.142Z,32.83
2019-05-18T19:30:12.947Z,32.90
2019-05-18T19:32:46.654Z,29.97
2019-05-18T19:35:20.273Z,31.53
2019-05-18T19:37:53.931Z,27.90
2019-05-18T19:40:27.589Z,32.83
2019-05-18T19:43:01.282Z,33.75
2019-05-18T19:45:34.878Z,30.20
2019-05-18T19:48:08.522Z,34.43
2019-05-18T19:50:42.496Z,29.73
2019-05-18T19:53:16.212Z,30.13
2019-05-18T19:55:49.802Z,28.27
2019-05-18T19:58:23.460Z,28.60
2019-05-18T20:00:57.044Z,33.00
2019-05-18T20:03:30.706Z,30.43
2019-05-18T20:06:04.711Z,30.17
2019-05-18T20:08:38.597Z,28.87
2019-05-18T20:11:12.181Z,29.53
2019-05-18T20:13:45.848Z,33.57
2019-05-18T20:16:19.523Z,30.63
2019-05-18T20:18:53.485Z,33.97
2019-05-18T20:21:27.550Z,31.37
2019-05-18T20:24:01.170Z,40.93
2019-05-18T20:26:34.981Z,39.67
2019-05-18T20:29:08.676Z,37.93
2019-05-18T20:31:42.314Z,35.33
2019-05-18T20:34:15.876Z,43.87
2019-05-18T20:36:49.583Z,39.87
2019-05-18T20:39:23.214Z,41.10
2019-05-18T20:41:56.894Z,39.43
2019-05-18T20:44:30.564Z,40.13
2019-05-18T20:47:04.215Z,39.33
2019-05-18T20:49:38.310Z,38.50
2019-05-18T20:52:11.921Z,37.33
2019-05-18T20:54:45.717Z,38.53
2019-05-18T20:57:19.362Z,37.80
2019-05-18T20:59:53.062Z,35.93
2019-05-18T21:02:26.730Z,33.17
2019-05-18T21:05:00.944Z,35.93
2019-05-18T21:07:34.605Z,33.23
2019-05-18T21:10:08.975Z,33.87
2019-05-18T21:12:42.624Z,35.37
2019-05-18T21:15:16.835Z,35.30
2019-05-18T21:17:50.495Z,37.90
2019-05-18T21:20:24.370Z,32.43
2019-05-18T21:22:59.488Z,28.47
2019-05-18T21:25:33.824Z,29.20
2019-05-18T21:28:07.491Z,27.23
2019-05-18T21:30:44.094Z,27.93
2019-05-18T21:33:17.758Z,27.63
2019-05-18T21:35:51.397Z,28.23
2019-05-18T21:38:25.323Z,26.93
2019-05-18T21:40:58.998Z,31.10
2019-05-18T21:43:32.576Z,30.17
2019-05-18T21:46:06.246Z,30.90
2019-05-18T21:48:40.283Z,32.10
2019-05-18T21:51:14.002Z,31.20
2019-05-18T21:53:47.744Z,32.80
2019-05-18T21:56:21.488Z,31.13
2019-05-18T21:59:10.154Z,34.47
2019-05-18T22:01:30.720Z,28.50
2019-05-18T22:04:04.665Z,33.43
2019-05-18T22:06:38.376Z,33.57
2019-05-18T22:09:12.132Z,33.27
2019-05-18T22:11:45.808Z,32.83
2019-05-18T22:14:19.407Z,31.83
2019-05-18T22:16:53.394Z,32.53
2019-05-18T22:19:27.086Z,33.33
2019-05-18T22:22:00.773Z,34.03
2019-05-18T22:24:34.505Z,32.87
2019-05-18T22:27:08.213Z,32.97
2019-05-18T22:29:42.103Z,33.50
2019-05-18T22:32:15.810Z,36.33
2019-05-18T22:34:49.391Z,38.93
2019-05-18T22:37:23.036Z,35.87
2019-05-18T22:39:56.775Z,36.57
2019-05-18T22:42:30.629Z,37.63
2019-05-18T22:45:05.009Z,28.63
2019-05-18T22:47:38.678Z,31.63
2019-05-18T22:50:12.702Z,32.50
2019-05-18T22:52:49.022Z,37.10
2019-05-18T22:55:22.724Z,34.87
2019-05-18T22:57:56.383Z,40.37
2019-05-18T23:00:30.052Z,41.17
2019-05-18T23:03:03.708Z,50.47
2019-05-18T23:05:37.307Z,45.53
2019-05-18T23:08:11.019Z,47.63
2019-05-18T23:10:44.685Z,44.57
2019-05-18T23:13:18.348Z,49.67
2019-05-18T23:15:51.989Z,48.90
2019-05-18T23:18:25.640Z,42.53
2019-05-18T23:20:59.180Z,38.30
2019-05-18T23:23:32.783Z,38.57
2019-05-18T23:26:06.487Z,37.53
2019-05-18T23:28:40.103Z,34.90
2019-05-18T23:31:13.811Z,34.07
2019-05-18T23:33:47.406Z,32.60
2019-05-18T23:36:21.056Z,30.63
2019-05-18T23:38:54.696Z,30.50
2019-05-18T23:41:28.363Z,27.37
2019-05-18T23:44:02.022Z,25.50
2019-05-18T23:46:35.700Z,24.33
2019-05-18T23:49:11.135Z,23.73
2019-05-18T23:51:44.538Z,23.40
2019-05-18T23:54:18.176Z,23.00
2019-05-18T23:56:52.147Z,24.77
2019-05-18T23:59:26.763Z,27.10
